Time;durP1;ratioP1;P1;durP2;ratioP2;P2;SDS_P1;SDS_P2;PMS_P1;PMS_P2;Temp;Humidity;BMP_temperature;BMP_pressure;BME280_temperature;BME280_humidity;BME280_pressure;Samples;Min_cycle;Max_cycle;Signal;HPM_P1;HPM_P2
2022/04/20 04:18:51;;;;;;;42.42;23.67;;;;;;;0.19;100.00;100220.75;5566607;32;201872;-87
2022/04/20 04:21:55;;;;;;;42.72;23.52;;;;;;;0.18;100.00;100229.44;5550849;32;35019;-87
2022/04/20 04:24:58;;;;;;;38.17;22.73;;;;;;;0.21;100.00;100229.41;5550488;32;34119;-87
2022/04/20 04:28:03;;;;;;;33.05;21.48;;;;;;;0.23;100.00;100222.44;5554671;32;34272;-87
2022/04/20 04:31:06;;;;;;;32.63;20.42;;;;;;;0.26;100.00;100232.84;5552921;32;32631;-87
2022/04/20 04:34:09;;;;;;;29.87;20.23;;;;;;;0.33;100.00;100236.25;5566469;32;34125;-87
2022/04/20 04:37:14;;;;;;;31.20;19.10;;;;;;;0.46;100.00;100243.06;5551668;32;32384;-87
2022/04/20 04:40:18;;;;;;;29.48;18.58;;;;;;;0.56;100.00;100243.87;5566381;32;34737;-86
2022/04/20 04:43:22;;;;;;;26.45;17.30;;;;;;;0.68;100.00;100240.25;5551885;32;33192;-87
2022/04/20 04:49:46;;;;;;;23.70;16.75;;;;;;;0.89;100.00;100246.09;5566716;32;34468;-87
2022/04/20 04:52:49;;;;;;;22.23;16.17;;;;;;;0.97;100.00;100244.28;5567078;32;33662;-87
2022/04/20 04:55:52;;;;;;;24.83;16.83;;;;;;;1.07;100.00;100242.41;5564810;32;34565;-87
2022/04/20 04:58:55;;;;;;;24.48;16.65;;;;;;;1.17;100.00;100249.22;5566153;32;34038;-87
2022/04/20 05:01:58;;;;;;;24.10;16.73;;;;;;;1.39;100.00;100245.47;5551243;32;33141;-87
2022/04/20 05:05:01;;;;;;;22.08;16.35;;;;;;;1.68;100.00;100245.06;5551462;32;33130;-86
2022/04/20 05:08:06;;;;;;;22.85;16.25;;;;;;;2.19;100.00;100239.91;5565388;32;33768;-87
2022/04/20 05:11:09;;;;;;;21.37;15.70;;;;;;;2.46;100.00;100243.78;5564744;32;33534;-87
2022/04/20 05:14:13;;;;;;;21.52;15.90;;;;;;;2.82;100.00;100243.97;5565131;32;35199;-87
2022/04/20 05:17:17;;;;;;;22.60;16.70;;;;;;;3.45;100.00;100247.94;5550625;32;34763;-91
2022/04/20 05:20:20;;;;;;;19.23;15.00;;;;;;;4.39;100.00;100251.84;5550631;32;32842;-87
2022/04/20 05:23:23;;;;;;;19.65;13.77;;;;;;;6.53;100.00;100247.16;5565841;32;34636;-87
2022/04/20 05:26:25;;;;;;;19.35;13.55;;;;;;;8.31;85.33;100243.91;5567585;32;33828;-87
2022/04/20 05:29:29;;;;;;;17.90;13.62;;;;;;;9.17;78.81;100245.50;5541162;32;33993;-87
2022/04/20 05:32:32;;;;;;;15.68;13.55;;;;;;;9.13;73.25;100250.09;5538231;32;32260;-87
2022/04/20 05:35:50;;;;;;;17.15;13.05;;;;;;;9.25;72.57;100250.47;5524163;32;33637;-89
2022/04/20 05:42:18;;;;;;;14.23;11.93;;;;;;;9.03;74.99;100256.72;5540526;32;33844;-88
2022/04/20 05:45:21;;;;;;;14.60;12.20;;;;;;;9.98;71.96;100254.94;5531284;32;33985;-88
2022/04/20 05:48:24;;;;;;;13.02;11.20;;;;;;;9.96;69.19;100257.66;5528705;32;33568;-88
2022/04/20 05:51:28;;;;;;;14.35;11.10;;;;;;;11.59;64.91;100252.81;5524638;32;33345;-88
2022/04/20 05:54:31;;;;;;;12.32;10.98;;;;;;;12.13;62.90;100251.59;5537286;32;32240;-88
2022/04/20 05:57:33;;;;;;;11.95;10.82;;;;;;;13.27;56.28;100247.47;5556022;32;34845;-88
2022/04/20 06:00:36;;;;;;;12.30;11.00;;;;;;;13.67;54.82;100244.91;5529817;32;33110;-88
2022/04/20 06:03:41;;;;;;;11.63;9.95;;;;;;;14.04;51.67;100248.78;5524936;32;33599;-88
2022/04/20 06:06:44;;;;;;;12.00;10.00;;;;;;;14.84;50.62;100241.69;5527141;32;33245;-86
2022/04/20 06:09:47;;;;;;;10.75;9.65;;;;;;;14.86;50.00;100248.62;5541618;32;32525;-86
2022/04/20 06:12:53;;;;;;;10.65;9.55;;;;;;;15.51;48.41;100235.16;5553972;32;33795;-86
2022/04/20 06:15:57;;;;;;;11.38;9.40;;;;;;;15.88;47.65;100229.75;5560075;32;34332;-86
2022/04/20 06:19:00;;;;;;;13.25;9.48;;;;;;;16.07;44.59;100231.09;5550390;32;32692;-86
2022/04/20 06:22:04;;;;;;;9.93;8.95;;;;;;;16.64;45.71;100233.06;5544113;32;32344;-85
2022/04/20 06:25:08;;;;;;;9.82;8.73;;;;;;;17.10;44.57;100237.50;5557066;32;35483;-85
2022/04/20 06:28:11;;;;;;;11.10;9.57;;;;;;;17.09;44.56;100235.81;5558404;32;34431;-83
2022/04/20 06:31:14;;;;;;;12.93;9.88;;;;;;;15.44;46.29;100234.72;5550018;32;32552;-83
2022/04/20 06:34:20;;;;;;;10.77;9.02;;;;;;;14.63;48.74;100227.00;5562875;32;33354;-87
2022/04/20 06:37:24;;;;;;;12.02;9.73;;;;;;;14.53;48.28;100228.59;5544676;32;32691;-84
2022/04/20 06:40:27;;;;;;;10.32;9.43;;;;;;;14.27;48.96;100229.44;5539994;32;32937;-87
2022/04/20 06:43:30;;;;;;;10.15;8.60;;;;;;;14.32;49.32;100225.62;5550667;32;33836;-86
2022/04/20 06:46:40;;;;;;;9.95;9.05;;;;;;;16.24;45.71;100218.25;5539061;32;32114;-87
2022/04/20 06:49:45;;;;;;;9.23;8.32;;;;;;;18.68;39.88;100212.06;5537587;32;34075;-87
2022/04/20 06:59:38;;;;;;;8.30;7.50;;;;;;;20.70;33.00;100195.75;5535972;32;33810;-87
2022/04/20 07:02:41;;;;;;;8.10;7.40;;;;;;;19.70;34.35;100195.97;5531468;32;34900;-87
2022/04/20 07:05:45;;;;;;;8.02;6.57;;;;;;;20.19;34.07;100192.47;5519757;32;33093;-87
2022/04/20 07:08:48;;;;;;;8.85;7.82;;;;;;;17.68;36.05;100190.00;5517857;32;33489;-87
2022/04/20 07:11:51;;;;;;;7.37;6.65;;;;;;;17.73;38.02;100198.50;5517743;32;32504;-87
2022/04/20 07:14:54;;;;;;;5.80;5.30;;;;;;;17.96;39.10;100192.19;5536956;32;34332;-87
2022/04/20 07:17:57;;;;;;;6.50;5.60;;;;;;;17.68;35.06;100195.34;5543264;32;34639;-87
2022/04/20 07:21:02;;;;;;;5.37;4.87;;;;;;;18.63;35.57;100197.31;5556740;32;33773;-87
2022/04/20 07:24:05;;;;;;;6.87;5.00;;;;;;;19.47;33.88;100195.41;5550271;32;32981;-85
2022/04/20 07:27:10;;;;;;;7.00;5.37;;;;;;;19.60;33.81;100192.44;5554196;32;35056;-86
2022/04/20 07:30:13;;;;;;;6.45;5.82;;;;;;;18.52;35.88;100188.38;5557199;32;33793;-88
2022/04/20 07:33:18;;;;;;;5.80;5.03;;;;;;;17.80;35.86;100198.00;5545504;32;34064;-88
2022/04/20 07:36:23;;;;;;;5.70;5.20;;;;;;;17.98;30.81;100193.78;5534996;32;33553;-88
2022/04/20 07:39:26;;;;;;;7.95;5.62;;;;;;;17.98;33.80;100191.09;5537812;32;34261;-89
2022/04/20 07:42:36;;;;;;;5.60;5.10;;;;;;;17.46;33.68;100201.62;5532724;32;33215;-90
2022/04/20 07:45:39;;;;;;;5.93;5.32;;;;;;;16.76;35.05;100204.47;5530032;32;33853;-85
2022/04/20 07:48:43;;;;;;;5.70;5.20;;;;;;;17.04;35.03;100199.63;5535496;32;34402;-86
2022/04/20 07:51:46;;;;;;;5.82;5.18;;;;;;;18.41;32.10;100191.97;5538085;32;32903;-83
2022/04/20 07:54:50;;;;;;;6.25;5.53;;;;;;;18.36;33.85;100185.31;5571273;32;34158;-85
2022/04/20 07:57:57;;;;;;;7.35;5.70;;;;;;;18.39;31.74;100188.59;5541069;32;34734;-84
2022/04/20 08:01:02;;;;;;;6.62;5.93;;;;;;;18.16;34.99;100190.56;5542143;32;35176;-85
2022/04/20 08:04:06;;;;;;;6.93;5.97;;;;;;;18.54;36.38;100191.78;5531411;32;32410;-87
2022/04/20 08:07:09;;;;;;;6.32;5.72;;;;;;;18.23;33.53;100189.03;5553939;32;32832;-84
2022/04/20 08:10:13;;;;;;;7.32;5.65;;;;;;;18.12;35.58;100183.75;5539479;32;34209;-85
2022/04/20 08:16:38;;;;;;;6.80;6.15;;;;;;;17.48;34.59;100179.09;5539351;32;33531;-88
2022/04/20 08:19:42;;;;;;;8.40;5.97;;;;;;;18.10;33.55;100172.28;5547888;32;33869;-90
2022/04/20 08:22:46;;;;;;;6.93;6.25;;;;;;;17.95;34.75;100164.50;5541873;32;34503;-90
2022/04/20 08:25:49;;;;;;;7.32;6.62;;;;;;;18.57;33.21;100164.62;5524230;32;32583;-85
2022/04/20 08:28:52;;;;;;;7.70;6.68;;;;;;;18.52;32.86;100168.72;5523639;32;32851;-85
2022/04/20 08:31:54;;;;;;;6.68;6.07;;;;;;;17.81;34.42;100154.97;5557113;32;34027;-86
2022/04/20 08:34:57;;;;;;;7.12;6.43;;;;;;;17.46;34.45;100156.88;5553498;32;34367;-86
2022/04/20 08:38:04;;;;;;;7.12;6.10;;;;;;;16.71;36.16;100156.63;5563304;31;33923;-85
2022/04/20 08:41:14;;;;;;;7.05;5.95;;;;;;;16.73;35.31;100159.19;5547677;32;33608;-85
2022/04/20 08:44:28;;;;;;;6.97;6.25;;;;;;;17.97;33.39;100150.97;5544972;32;34207;-86
2022/04/20 08:47:39;;;;;;;7.35;6.60;;;;;;;17.52;37.12;100153.69;5545232;32;33670;-86
2022/04/20 08:50:42;;;;;;;7.78;6.97;;;;;;;17.86;34.23;100146.53;5553236;32;34456;-88
2022/04/20 08:53:46;;;;;;;7.10;6.40;;;;;;;16.74;33.79;100153.69;5532905;32;33753;-89
2022/04/20 09:00:23;;;;;;;6.93;6.18;;;;;;;18.10;32.97;100148.13;5544421;32;33750;-89
2022/04/20 09:03:28;;;;;;;8.02;7.22;;;;;;;17.11;38.45;100152.63;5551256;32;34708;-89
2022/04/20 09:06:34;;;;;;;6.97;6.28;;;;;;;18.66;35.39;100140.66;5537847;32;32327;-85
2022/04/20 09:09:37;;;;;;;7.30;6.47;;;;;;;19.07;33.14;100148.75;5551531;32;34134;-85
2022/04/20 09:13:00;;;;;;;6.82;6.12;;;;;;;19.31;33.59;100139.47;5522833;32;33851;-86
2022/04/20 09:16:06;;;;;;;7.12;5.95;;;;;;;19.35;29.83;100140.88;5538422;32;34198;-85
2022/04/20 09:19:11;;;;;;;10.88;6.32;;;;;;;19.28;29.75;100137.03;5553130;32;35513;-86
2022/04/20 09:22:24;;;;;;;7.12;5.87;;;;;;;19.88;28.89;100131.56;5529556;32;33016;-86
2022/04/20 09:25:35;;;;;;;6.70;5.95;;;;;;;20.00;29.66;100132.25;5568382;32;34050;-89
2022/04/20 09:28:40;;;;;;;6.57;5.68;;;;;;;20.24;28.90;100132.78;5562807;31;33946;-86
2022/04/20 09:32:01;;;;;;;6.25;5.65;;;;;;;20.43;27.49;100129.19;5551309;32;35294;-86
2022/04/20 09:35:21;;;;;;;6.72;6.00;;;;;;;19.85;28.24;100126.44;5533698;32;32451;-87
2022/04/20 09:38:23;;;;;;;5.97;5.40;;;;;;;20.02;28.54;100129.44;5537456;32;33711;-87
2022/04/20 09:41:30;;;;;;;5.55;5.05;;;;;;;20.35;28.67;100118.31;5539837;32;31288;-87
2022/04/20 09:44:35;;;;;;;5.90;5.20;;;;;;;19.18;26.91;100115.50;5541449;32;34578;-86
2022/04/20 09:51:12;;;;;;;7.05;5.50;;;;;;;18.26;29.52;100118.97;5564310;32;34034;-86
2022/04/20 09:54:28;;;;;;;5.93;5.32;;;;;;;18.41;28.75;100116.78;5542638;32;33560;-86
2022/04/20 09:57:34;;;;;;;5.57;4.97;;;;;;;20.17;25.76;100111.00;5539847;32;33740;-85
2022/04/20 10:00:41;;;;;;;5.40;4.87;;;;;;;19.20;26.83;100113.53;5539047;32;33610;-84
2022/04/20 10:03:53;;;;;;;7.53;4.90;;;;;;;20.70;24.95;100111.34;5540089;32;33026;-85
2022/04/20 10:06:55;;;;;;;5.22;4.75;;;;;;;18.08;27.84;100104.44;5554032;32;34486;-86
2022/04/20 10:09:58;;;;;;;5.47;4.70;;;;;;;21.08;25.55;100111.31;5552033;32;32574;-85
2022/04/20 10:13:03;;;;;;;5.00;4.28;;;;;;;22.83;23.07;100100.81;5571593;32;34142;-85
2022/04/20 10:16:12;;;;;;;4.82;4.40;;;;;;;21.92;22.39;100103.00;5540299;32;34609;-88
2022/04/20 10:19:27;;;;;;;5.32;4.43;;;;;;;20.54;24.18;100104.75;5541779;32;34712;-90
2022/04/20 10:22:31;;;;;;;4.62;4.22;;;;;;;18.87;26.03;100102.97;5545165;32;32319;-87
2022/04/20 10:25:50;;;;;;;4.82;4.40;;;;;;;17.67;26.58;100106.97;5543521;32;32853;-85
2022/04/20 10:29:39;;;;;;;5.28;4.25;;;;;;;19.75;25.84;100096.00;5549491;32;35556;-85
2022/04/20 10:32:52;;;;;;;6.97;4.40;;;;;;;21.13;23.77;100098.25;5550751;32;33682;-84
2022/04/20 10:36:03;;;;;;;4.70;4.30;;;;;;;20.58;23.62;100103.44;5538457;32;32814;-85
2022/04/20 10:39:25;;;;;;;4.18;3.75;;;;;;;21.35;22.20;100101.47;5530682;32;33165;-85
2022/04/20 10:42:30;;;;;;;5.40;4.50;;;;;;;23.63;19.93;100095.91;5534995;32;32710;-85
2022/04/20 10:45:35;;;;;;;5.75;4.20;;;;;;;26.24;18.35;100091.59;5540376;32;33895;-85
2022/04/20 10:49:17;;;;;;;5.85;4.90;;;;;;;25.58;18.35;100087.63;5533363;32;32991;-85
2022/04/20 10:52:35;;;;;;;5.25;4.85;;;;;;;23.91;19.74;100078.47;5525991;32;32937;-86
2022/04/20 10:55:50;;;;;;;6.03;5.10;;;;;;;21.66;22.66;100076.78;5518812;32;33997;-85
2022/04/20 10:59:14;;;;;;;5.68;5.18;;;;;;;21.24;22.77;100083.69;5535164;32;33303;-85
2022/04/20 11:02:16;;;;;;;6.32;5.72;;;;;;;18.78;25.44;100079.59;5545561;32;35203;-84
2022/04/20 11:05:21;;;;;;;7.37;5.90;;;;;;;18.82;26.00;100073.81;5527101;32;32848;-85
2022/04/20 11:08:25;;;;;;;5.50;5.00;;;;;;;19.93;25.72;100079.97;5529727;32;33082;-86
2022/04/20 11:19:10;;;;;;;;;;;;;;;17.92;26.21;100076.22;5530470;32;32868;-90
2022/04/20 11:22:15;;;;;;;6.30;5.70;;;;;;;17.50;26.25;100072.53;5543842;32;34170;-85
2022/04/20 11:25:19;;;;;;;7.28;6.35;;;;;;;16.56;28.12;100062.31;5538229;32;33933;-84
2022/04/20 11:28:21;;;;;;;7.28;6.55;;;;;;;16.43;28.55;100071.31;5546185;32;34069;-85
2022/04/20 11:31:25;;;;;;;8.27;7.18;;;;;;;16.41;27.98;100059.03;5539101;32;34840;-84
2022/04/20 11:34:31;;;;;;;9.00;7.68;;;;;;;16.02;28.64;100067.37;5557328;32;33984;-86
2022/04/20 11:37:34;;;;;;;9.48;7.80;;;;;;;15.29;29.52;100072.84;5528364;32;33461;-86
2022/04/20 11:40:41;;;;;;;8.88;7.97;;;;;;;14.79;31.40;100053.28;5560020;32;34367;-85
2022/04/20 11:43:45;;;;;;;8.00;7.20;;;;;;;15.80;31.06;100055.66;5540565;32;32546;-86
2022/04/20 11:46:49;;;;;;;9.10;8.10;;;;;;;17.00;28.70;100061.50;5548357;32;33478;-86
2022/04/20 11:49:56;;;;;;;13.30;9.27;;;;;;;16.31;28.09;100058.91;5537192;32;32646;-85
2022/04/20 11:52:59;;;;;;;8.88;7.97;;;;;;;16.95;27.00;100059.19;5548455;32;32809;-85
2022/04/20 11:56:07;;;;;;;9.48;8.40;;;;;;;16.93;27.14;100056.63;5549158;32;35036;-84
2022/04/20 11:59:10;;;;;;;10.30;9.30;;;;;;;15.25;28.88;100055.34;5533496;32;32389;-85
2022/04/20 12:02:14;;;;;;;9.43;8.52;;;;;;;14.94;29.57;100056.63;5525448;32;33402;-84
2022/04/20 12:05:19;;;;;;;10.13;9.07;;;;;;;14.94;30.80;100055.81;5548929;32;33525;-84
2022/04/20 12:08:24;;;;;;;12.00;9.07;;;;;;;15.32;29.54;100052.09;5558571;32;34117;-85
2022/04/20 12:11:27;;;;;;;10.63;9.52;;;;;;;15.95;30.88;100060.81;5537533;32;33192;-85
2022/04/20 12:14:32;;;;;;;10.82;8.60;;;;;;;15.56;30.78;100050.34;5540003;32;32616;-84
2022/04/20 12:17:36;;;;;;;8.85;7.95;;;;;;;14.88;31.15;100053.59;5529355;32;33845;-84
2022/04/20 12:20:46;;;;;;;9.52;8.10;;;;;;;15.43;28.97;100050.44;5547701;32;33792;-85
2022/04/20 12:23:49;;;;;;;7.80;7.00;;;;;;;14.81;29.03;100046.03;5565238;32;34910;-86
2022/04/20 12:26:56;;;;;;;8.82;7.57;;;;;;;15.04;28.81;100047.97;5550439;32;32631;-85
2022/04/20 12:29:59;;;;;;;8.85;7.65;;;;;;;15.45;28.49;100040.47;5559276;32;33866;-86
2022/04/20 12:33:04;;;;;;;8.60;7.70;;;;;;;15.03;28.83;100038.25;5551708;32;33965;-85
2022/04/20 12:36:10;;;;;;;8.07;7.28;;;;;;;15.20;28.59;100036.97;5536975;32;32562;-85
2022/04/20 12:39:38;;;;;;;8.75;7.82;;;;;;;15.86;26.55;100031.13;5551104;32;33844;-84
2022/04/20 12:43:07;;;;;;;9.95;8.68;;;;;;;15.03;28.62;100028.41;5564895;32;33937;-88
2022/04/20 12:46:14;;;;;;;10.65;9.55;;;;;;;13.52;31.36;100041.59;5527482;32;32802;-85
2022/04/20 12:49:26;;;;;;;10.45;9.35;;;;;;;13.22;32.53;100042.62;5548695;32;34638;-85
2022/04/20 12:52:30;;;;;;;10.68;9.38;;;;;;;13.15;33.57;100042.22;5544986;32;34309;-85
2022/04/20 12:55:35;;;;;;;9.55;8.60;;;;;;;13.44;31.88;100041.22;5529548;32;32302;-85
2022/04/20 13:02:04;;;;;;;9.27;8.35;;;;;;;14.20;29.57;100030.75;5538403;32;33157;-84
2022/04/20 13:05:11;;;;;;;9.18;8.27;;;;;;;14.46;29.71;100027.16;5565916;32;34562;-84
2022/04/20 13:08:15;;;;;;;11.90;9.05;;;;;;;14.78;29.47;100030.22;5554700;32;35068;-85
2022/04/20 13:11:18;;;;;;;10.23;8.68;;;;;;;15.23;29.73;100024.25;5540292;32;32512;-85
2022/04/20 13:14:41;;;;;;;12.10;10.00;;;;;;;15.12;30.38;100028.66;5535003;32;33277;-85
2022/04/20 13:17:44;;;;;;;11.57;9.05;;;;;;;14.27;31.34;100013.34;5550998;32;34161;-85
2022/04/20 13:20:50;;;;;;;10.43;9.10;;;;;;;14.37;31.23;100023.34;5539949;32;33949;-84
2022/04/20 13:23:54;;;;;;;10.77;9.18;;;;;;;14.24;32.27;100026.03;5537834;32;33545;-84
2022/04/20 13:30:18;;;;;;;12.82;10.00;;;;;;;14.11;32.59;100018.91;5568313;32;34203;-85
2022/04/20 13:33:21;;;;;;;12.23;10.98;;;;;;;14.04;32.83;100014.09;5559678;32;33400;-86
2022/04/20 13:36:24;;;;;;;13.18;10.88;;;;;;;13.56;32.88;100016.44;5549066;32;35909;-85
2022/04/20 13:39:27;;;;;;;13.65;10.07;;;;;;;13.12;34.27;100017.59;5533982;32;33178;-90
2022/04/20 13:42:30;;;;;;;11.70;10.40;;;;;;;13.32;34.75;100014.44;5529057;32;35977;-91
2022/04/20 13:45:33;;;;;;;11.68;10.25;;;;;;;13.03;34.18;100009.25;5531929;32;34277;-92
2022/04/20 13:48:38;;;;;;;14.00;10.13;;;;;;;12.75;34.87;100015.50;5541368;32;34167;-87
2022/04/20 13:51:42;;;;;;;13.55;9.80;;;;;;;12.91;35.40;100018.91;5523382;32;33301;-87
2022/04/20 13:54:45;;;;;;;11.38;10.07;;;;;;;12.88;33.54;100023.56;5526586;32;32340;-87
2022/04/20 13:57:48;;;;;;;12.48;10.05;;;;;;;13.12;33.53;100017.59;5544684;32;33938;-87
2022/04/20 14:00:51;;;;;;;12.73;10.32;;;;;;;12.84;34.38;100016.72;5543109;32;34213;-88
2022/04/20 14:03:55;;;;;;;17.27;9.70;;;;;;;12.88;34.80;100012.94;5531297;32;34782;-87
2022/04/20 14:06:57;;;;;;;11.55;10.02;;;;;;;12.86;35.34;100020.13;5517976;32;32549;-87
2022/04/20 14:10:03;;;;;;;11.90;10.10;;;;;;;13.24;33.52;100016.78;5557581;32;34342;-86
2022/04/20 14:13:06;;;;;;;12.20;10.38;;;;;;;13.32;32.78;100017.09;5565001;32;35251;-86
2022/04/20 14:16:10;;;;;;;11.88;10.63;;;;;;;13.61;33.77;100010.78;5536215;32;34077;-86
2022/04/20 14:19:14;;;;;;;11.73;9.90;;;;;;;13.50;31.12;100010.66;5550347;32;34881;-86
2022/04/20 14:22:17;;;;;;;11.27;10.18;;;;;;;13.65;31.65;100020.28;5556335;32;35234;-86
2022/04/20 14:32:09;;;;;;;14.35;11.80;;;;;;;13.30;32.03;100018.16;5534869;32;33991;-86
2022/04/20 14:35:13;;;;;;;12.73;11.40;;;;;;;13.14;33.69;100011.22;5524162;32;32603;-85
2022/04/20 14:38:15;;;;;;;13.95;11.93;;;;;;;13.61;32.72;100018.78;5528503;32;32810;-86
2022/04/20 14:41:19;;;;;;;15.05;11.40;;;;;;;13.77;32.98;100021.25;5521496;32;33439;-86
2022/04/20 14:44:23;;;;;;;13.25;11.25;;;;;;;14.09;31.81;100014.63;5530394;32;33691;-86
2022/04/20 14:47:26;;;;;;;13.62;11.77;;;;;;;14.31;31.81;100024.63;5530581;32;34662;-85
2022/04/20 14:50:31;;;;;;;12.88;11.38;;;;;;;13.89;31.52;100014.22;5516722;32;33693;-86
2022/04/20 14:53:34;;;;;;;12.63;10.55;;;;;;;13.58;31.96;100022.50;5530603;32;34430;-86
2022/04/20 14:56:37;;;;;;;13.15;10.43;;;;;;;13.49;33.03;100028.47;5535418;32;33859;-86
2022/04/20 14:59:40;;;;;;;11.20;9.68;;;;;;;13.68;31.43;100017.41;5542235;32;35266;-86
2022/04/20 15:02:43;;;;;;;10.48;9.27;;;;;;;13.39;31.82;100022.03;5534778;32;35438;-86
2022/04/20 15:05:46;;;;;;;13.15;9.40;;;;;;;13.32;31.75;100014.44;5516649;32;32711;-86
2022/04/20 15:08:49;;;;;;;10.75;9.25;;;;;;;13.52;31.78;100022.09;5530951;32;34642;-86
2022/04/20 15:11:53;;;;;;;9.98;8.95;;;;;;;13.56;31.93;100031.56;5518032;32;32273;-86
2022/04/20 15:14:58;;;;;;;10.07;8.95;;;;;;;13.68;31.92;100030.72;5532283;32;34669;-86
2022/04/20 15:18:01;;;;;;;12.07;9.10;;;;;;;13.66;32.10;100032.66;5530876;32;34047;-86
2022/04/20 15:21:05;;;;;;;9.68;8.68;;;;;;;13.64;31.92;100034.59;5516956;32;32129;-90
